createdAt,value
2023-02-16T00:02:32.846Z,102946.38
2023-02-16T00:05:31.286Z,102953.66
2023-02-16T00:08:06.525Z,102945.91
2023-02-16T00:11:10.393Z,102945.03
2023-02-16T00:13:57.676Z,102949.34
2023-02-16T00:16:39.205Z,102947.56
2023-02-16T00:19:42.817Z,102942.06
2023-02-16T00:22:19.515Z,102949.06
2023-02-16T00:24:56.057Z,102942.91
2023-02-16T00:27:39.928Z,102941.09
2023-02-16T00:30:26.295Z,102939.91
2023-02-16T00:33:24.270Z,102938.97
2023-02-16T00:36:21.744Z,102938.09
2023-02-16T00:39:25.691Z,102943.88
2023-02-16T00:42:27.128Z,102943.66
2023-02-16T00:45:30.132Z,102938.00
2023-02-16T00:48:12.591Z,102942.47
2023-02-16T00:50:58.480Z,102936.38
2023-02-16T00:53:38.226Z,102929.53
2023-02-16T00:56:35.361Z,102932.97
2023-02-16T00:59:31.566Z,102925.81
2023-02-16T01:02:09.164Z,102924.84
2023-02-16T01:04:59.259Z,102926.56
2023-02-16T01:07:59.400Z,102918.75
2023-02-16T01:11:10.920Z,102920.25
2023-02-16T01:13:58.649Z,102921.97
2023-02-16T01:16:57.602Z,102920.56
2023-02-16T01:19:47.687Z,102911.78
2023-02-16T01:22:40.016Z,102911.56
2023-02-16T01:25:21.420Z,102912.19
2023-02-16T01:28:16.521Z,102908.44
2023-02-16T01:31:14.483Z,102915.19
2023-02-16T01:33:57.147Z,102909.63
2023-02-16T01:36:42.299Z,102905.97
2023-02-16T01:39:27.347Z,102910.53
2023-02-16T01:42:29.907Z,102908.75
2023-02-16T01:46:00.683Z,102919.31
2023-02-16T01:48:41.272Z,102904.44
2023-02-16T01:51:51.284Z,102907.41
2023-02-16T01:54:49.789Z,102901.88
2023-02-16T01:57:36.086Z,102905.38
2023-02-16T02:00:52.132Z,102906.19
2023-02-16T02:04:11.789Z,102894.31
2023-02-16T02:06:52.201Z,102892.38
2023-02-16T02:09:44.337Z,102897.31
2023-02-16T02:12:59.254Z,102891.94
2023-02-16T02:15:46.743Z,102896.41
2023-02-16T02:18:49.070Z,102886.66
2023-02-16T02:22:18.386Z,102894.53
2023-02-16T02:25:22.239Z,102881.38
2023-02-16T02:28:31.342Z,102884.06
2023-02-16T02:31:39.150Z,102883.97
2023-02-16T02:34:39.251Z,102884.59
2023-02-16T02:37:50.917Z,102892.06
2023-02-16T02:40:55.922Z,102885.03
2023-02-16T02:44:02.287Z,102887.34
2023-02-16T02:47:07.088Z,102892.75
2023-02-16T02:50:04.010Z,102890.25
2023-02-16T02:52:50.386Z,102889.97
2023-02-16T02:56:07.097Z,102886.66
2023-02-16T03:02:41.953Z,102891.78
2023-02-16T03:05:13.977Z,102881.09
2023-02-16T03:07:47.779Z,102884.75
2023-02-16T03:10:45.094Z,102885.56
2023-02-16T03:13:38.513Z,102888.91
2023-02-16T03:16:13.963Z,102886.22
2023-02-16T03:19:02.754Z,102884.22
2023-02-16T03:22:04.905Z,102887.75
2023-02-16T03:24:52.434Z,102883.44
2023-02-16T03:27:56.521Z,102889.53
2023-02-16T03:30:37.207Z,102893.84
2023-02-16T03:33:11.419Z,102887.75
2023-02-16T03:35:40.219Z,102887.75
2023-02-16T03:38:09.419Z,102889.53
2023-02-16T03:40:45.152Z,102887.22
2023-02-16T03:43:19.645Z,102889.72
2023-02-16T03:46:04.863Z,102884.63
2023-02-16T03:48:32.881Z,102891.34
2023-02-16T03:51:04.526Z,102892.34
2023-02-16T03:53:39.540Z,102899.22
2023-02-16T03:56:12.890Z,102897.53
2023-02-16T03:58:41.028Z,102894.84
2023-02-16T04:01:09.442Z,102896.47
2023-02-16T04:03:41.080Z,102895.91
2023-02-16T04:06:10.838Z,102892.44
2023-02-16T04:08:39.771Z,102890.00
2023-02-16T04:11:31.420Z,102889.09
2023-02-16T04:14:07.076Z,102886.34
2023-02-16T04:16:40.712Z,102880.34
2023-02-16T04:19:08.868Z,102880.16
2023-02-16T04:21:39.787Z,102879.44
2023-02-16T04:24:14.316Z,102877.19
2023-02-16T04:26:46.374Z,102883.09
2023-02-16T04:29:17.577Z,102881.16
2023-02-16T04:31:48.858Z,102880.13
2023-02-16T04:34:42.844Z,102886.94
2023-02-16T04:37:12.087Z,102889.28
2023-02-16T04:39:41.996Z,102881.50
2023-02-16T04:42:18.891Z,102885.72
2023-02-16T04:44:54.867Z,102886.69
2023-02-16T04:47:30.615Z,102896.19
2023-02-16T04:50:04.709Z,102896.91
2023-02-16T04:52:59.511Z,102896.69
2023-02-16T04:55:32.124Z,102898.31
2023-02-16T04:58:25.208Z,102895.44
2023-02-16T05:01:04.523Z,102895.63
2023-02-16T05:03:37.593Z,102896.44
2023-02-16T05:06:12.297Z,102894.34
2023-02-16T05:08:44.715Z,102902.53
2023-02-16T05:11:37.509Z,102894.47
2023-02-16T05:14:24.058Z,102897.16
2023-02-16T05:16:55.624Z,102901.06
2023-02-16T05:19:23.529Z,102903.84
2023-02-16T05:22:04.094Z,102911.19
2023-02-16T05:24:33.291Z,102903.66
2023-02-16T05:27:13.040Z,102907.16
2023-02-16T05:29:42.391Z,102913.34
2023-02-16T05:32:32.456Z,102913.78
2023-02-16T05:35:00.911Z,102912.00
2023-02-16T05:37:29.058Z,102916.66
2023-02-16T05:39:57.417Z,102915.66
2023-02-16T05:42:28.462Z,102909.41
2023-02-16T05:44:59.747Z,102913.97
2023-02-16T05:47:28.128Z,102905.28
2023-02-16T05:50:01.484Z,102906.00
2023-02-16T05:52:29.771Z,102904.38
2023-02-16T05:55:00.259Z,102905.19
2023-02-16T05:57:28.728Z,102904.66
2023-02-16T05:59:57.019Z,102905.19
2023-02-16T06:02:30.735Z,102905.38
2023-02-16T06:05:03.301Z,102914.06
2023-02-16T06:07:38.778Z,102912.34
2023-02-16T06:10:14.869Z,102907.97
2023-02-16T06:12:51.880Z,102912.75
2023-02-16T06:15:23.777Z,102911.69
2023-02-16T06:18:01.499Z,102913.06
2023-02-16T06:20:33.585Z,102916.16
2023-02-16T06:23:11.748Z,102916.28
2023-02-16T06:25:45.323Z,102916.16
2023-02-16T06:30:55.032Z,102919.47
2023-02-16T06:33:23.139Z,102918.59
2023-02-16T06:35:52.222Z,102921.09
2023-02-16T06:38:23.730Z,102924.75
2023-02-16T06:40:55.698Z,102927.97
2023-02-16T06:43:27.181Z,102931.47
2023-02-16T06:45:56.457Z,102934.16
2023-02-16T06:48:24.703Z,102943.75
2023-02-16T06:50:53.312Z,102946.78
2023-02-16T06:53:21.221Z,102951.09
2023-02-16T06:55:54.963Z,102950.97
2023-02-16T06:58:22.228Z,102950.50
2023-02-16T07:00:50.198Z,102952.19
2023-02-16T07:03:21.054Z,102957.75
2023-02-16T07:05:50.049Z,102960.63
2023-02-16T07:08:18.268Z,102966.97
2023-02-16T07:10:51.311Z,102970.91
2023-02-16T07:13:22.220Z,102975.03
2023-02-16T07:15:53.222Z,102979.50
2023-02-16T07:18:23.864Z,102982.22
2023-02-16T07:20:55.030Z,102988.09
2023-02-16T07:23:34.441Z,102993.78
2023-02-16T07:26:04.995Z,102995.84
2023-02-16T07:28:44.544Z,102997.38
2023-02-16T07:31:16.817Z,102999.38
2023-02-16T07:33:47.391Z,103006.53
2023-02-16T07:36:29.448Z,103003.31
2023-02-16T07:39:03.597Z,103004.44
2023-02-16T07:41:34.630Z,103014.41
2023-02-16T07:44:24.420Z,103014.00
2023-02-16T07:49:56.624Z,103020.28
2023-02-16T07:52:32.257Z,103016.38
2023-02-16T07:55:18.755Z,103012.97
2023-02-16T07:58:04.078Z,103014.22
2023-02-16T08:03:47.459Z,103026.94
2023-02-16T08:06:32.168Z,103024.72
2023-02-16T08:09:15.509Z,103023.94
2023-02-16T08:12:11.249Z,103030.16
2023-02-16T08:15:08.387Z,103033.47
2023-02-16T08:17:46.458Z,103037.44
2023-02-16T08:20:45.170Z,103028.41
2023-02-16T08:23:29.517Z,103034.13
2023-02-16T08:25:59.545Z,103033.28
2023-02-16T08:28:29.158Z,103041.75
2023-02-16T08:34:12.422Z,103038.69
2023-02-16T08:39:50.945Z,103040.22
2023-02-16T08:42:30.082Z,103042.53
2023-02-16T08:45:15.113Z,103050.72
2023-02-16T08:47:44.938Z,103045.38
2023-02-16T08:50:31.422Z,103047.41
2023-02-16T08:53:30.930Z,103048.13
2023-02-16T08:56:00.271Z,103047.41
2023-02-16T08:58:28.250Z,103052.53
2023-02-16T09:03:52.144Z,103052.97
2023-02-16T09:06:23.356Z,103051.69
2023-02-16T09:09:02.970Z,103053.91
2023-02-16T09:11:55.588Z,103052.47
2023-02-16T09:14:45.194Z,103057.16
2023-02-16T09:17:24.017Z,103059.00
2023-02-16T09:20:13.152Z,103063.19
2023-02-16T09:22:55.951Z,103053.13
2023-02-16T09:28:43.187Z,103058.91
2023-02-16T09:31:48.897Z,103054.88
2023-02-16T09:34:36.846Z,103064.91
2023-02-16T09:37:29.688Z,103064.28
2023-02-16T09:40:26.136Z,103070.75
2023-02-16T09:43:30.043Z,103068.28
2023-02-16T09:46:22.687Z,103073.94
2023-02-16T09:48:58.884Z,103070.75
2023-02-16T09:51:47.258Z,103071.72
2023-02-16T09:54:35.186Z,103072.28
2023-02-16T09:57:39.009Z,103079.56
2023-02-16T10:00:45.611Z,103075.72
2023-02-16T10:04:06.141Z,103077.91
2023-02-16T10:07:02.453Z,103088.00
2023-02-16T10:13:10.956Z,103079.97
2023-02-16T10:15:44.533Z,103086.50
2023-02-16T10:21:40.907Z,103088.09
2023-02-16T10:27:13.106Z,103091.09
2023-02-16T10:30:03.250Z,103099.41
2023-02-16T10:33:16.185Z,103098.63
2023-02-16T10:36:02.297Z,103095.44
2023-02-16T10:42:10.143Z,103098.25
2023-02-16T10:45:15.900Z,103104.91
2023-02-16T10:48:19.189Z,103097.59
2023-02-16T10:51:16.381Z,103095.59
2023-02-16T10:54:02.925Z,103102.75
2023-02-16T10:57:32.618Z,103095.56
2023-02-16T11:03:48.390Z,103099.53
2023-02-16T11:06:31.919Z,103098.94
2023-02-16T11:09:18.884Z,103101.00
2023-02-16T11:12:02.216Z,103099.50
2023-02-16T11:14:42.266Z,103099.81
2023-02-16T11:17:27.789Z,103094.78
2023-02-16T11:20:26.066Z,103093.41
2023-02-16T11:23:43.435Z,103086.72
2023-02-16T11:26:12.391Z,103080.94
2023-02-16T11:28:48.606Z,103083.88
2023-02-16T11:31:40.340Z,103075.44
2023-02-16T11:34:41.517Z,103068.75
2023-02-16T11:37:28.287Z,103067.22
2023-02-16T11:40:26.739Z,103067.28
2023-02-16T11:42:58.008Z,103066.75
2023-02-16T11:45:38.935Z,103069.69
2023-02-16T11:48:13.025Z,103058.84
2023-02-16T11:51:03.465Z,103070.31
2023-02-16T11:53:39.006Z,103065.28
2023-02-16T11:56:31.363Z,103065.22
2023-02-16T11:59:29.327Z,103056.03
2023-02-16T12:02:21.300Z,103055.47
2023-02-16T12:05:17.610Z,103050.38
2023-02-16T12:07:51.851Z,103055.22
2023-02-16T12:10:39.207Z,103044.94
2023-02-16T12:13:41.767Z,103042.78
2023-02-16T12:16:52.498Z,103041.59
2023-02-16T12:19:48.558Z,103033.25
2023-02-16T12:22:49.372Z,103030.66
2023-02-16T12:26:18.260Z,103030.66
2023-02-16T12:29:27.740Z,103024.50
2023-02-16T12:32:33.080Z,103024.19
2023-02-16T12:35:39.760Z,103017.50
2023-02-16T12:38:32.321Z,103019.78
2023-02-16T12:41:42.099Z,103013.59
2023-02-16T12:44:33.824Z,103006.88
2023-02-16T12:47:20.953Z,103000.31
2023-02-16T12:50:24.261Z,102999.16
2023-02-16T12:53:38.843Z,102994.72
2023-02-16T12:56:25.447Z,102994.78
2023-02-16T12:59:15.079Z,102997.19
2023-02-16T13:01:51.731Z,102992.13
2023-02-16T13:04:37.196Z,102989.09
2023-02-16T13:07:41.682Z,102986.47
2023-02-16T13:10:34.940Z,102984.41
2023-02-16T13:13:18.710Z,102977.13
2023-02-16T13:16:45.448Z,102984.13
2023-02-16T13:20:01.653Z,102983.84
2023-02-16T13:23:17.267Z,102979.28
2023-02-16T13:26:11.604Z,102984.72
2023-02-16T13:29:29.817Z,102970.94
2023-02-16T13:32:34.732Z,102961.06
2023-02-16T13:35:26.753Z,102962.41
2023-02-16T13:38:11.593Z,102962.19
2023-02-16T13:41:03.963Z,102954.38
2023-02-16T13:43:37.638Z,102960.09
2023-02-16T13:46:16.780Z,102956.13
2023-02-16T13:49:06.885Z,102945.84
2023-02-16T13:51:50.928Z,102950.34
2023-02-16T13:54:44.328Z,102944.25
2023-02-16T13:58:03.658Z,102940.66
2023-02-16T14:04:00.937Z,102937.50
2023-02-16T14:09:48.963Z,102938.78
2023-02-16T14:12:37.905Z,102936.69
2023-02-16T14:18:52.302Z,102939.97
2023-02-16T14:21:46.535Z,102940.44
2023-02-16T14:24:53.397Z,102947.16
2023-02-16T14:30:57.540Z,102938.06
2023-02-16T14:37:38.728Z,102936.41
2023-02-16T14:40:59.656Z,102925.75
2023-02-16T14:43:57.113Z,102937.78
2023-02-16T14:46:56.546Z,102941.94
2023-02-16T14:50:04.060Z,102934.91
2023-02-16T14:53:16.518Z,102935.16
2023-02-16T14:56:37.649Z,102934.69
2023-02-16T14:59:33.308Z,102928.00
2023-02-16T15:02:54.389Z,102930.81
2023-02-16T15:05:53.090Z,102934.88
2023-02-16T15:08:55.466Z,102933.38
2023-02-16T15:12:09.700Z,102930.38
2023-02-16T15:14:43.729Z,102935.03
2023-02-16T15:17:48.279Z,102930.97
2023-02-16T15:20:52.916Z,102936.03
2023-02-16T15:27:02.967Z,102938.91
2023-02-16T15:29:39.644Z,102935.69
2023-02-16T15:32:12.461Z,102935.94
2023-02-16T15:34:53.012Z,102939.44
2023-02-16T15:37:43.856Z,102938.13
2023-02-16T15:40:34.877Z,102939.22
2023-02-16T15:43:31.327Z,102940.00
2023-02-16T15:46:07.329Z,102940.28
2023-02-16T15:51:25.691Z,102936.22
2023-02-16T15:54:25.851Z,102942.66
2023-02-16T15:57:16.196Z,102941.91
2023-02-16T15:59:48.331Z,102948.47
2023-02-16T16:02:16.075Z,102940.56
2023-02-16T16:05:04.671Z,102936.03
2023-02-16T16:07:41.609Z,102946.25
2023-02-16T16:10:37.218Z,102943.13
2023-02-16T16:13:21.206Z,102949.59
2023-02-16T16:15:56.067Z,102946.91
2023-02-16T16:18:51.813Z,102948.47
2023-02-16T16:21:45.027Z,102955.88
2023-02-16T16:24:21.390Z,102958.28
2023-02-16T16:27:14.623Z,102950.53
2023-02-16T16:29:58.229Z,102952.03
2023-02-16T16:32:39.610Z,102953.47
2023-02-16T16:35:35.102Z,102956.84
2023-02-16T16:38:28.788Z,102953.34
2023-02-16T16:41:04.769Z,102953.34
2023-02-16T16:46:47.197Z,102962.41
2023-02-16T16:49:23.839Z,102955.66
2023-02-16T16:52:16.397Z,102956.28
2023-02-16T16:54:54.782Z,102960.69
2023-02-16T16:57:55.740Z,102958.59
2023-02-16T17:00:42.625Z,102962.97
2023-02-16T17:03:30.472Z,102965.06
2023-02-16T17:06:11.612Z,102966.16
2023-02-16T17:08:56.461Z,102958.31
2023-02-16T17:11:39.796Z,102976.56
2023-02-16T17:17:09.492Z,102976.59
2023-02-16T17:19:42.506Z,102975.19
2023-02-16T17:22:26.950Z,102967.81
2023-02-16T17:24:55.383Z,102969.59
2023-02-16T17:27:33.385Z,102974.06
2023-02-16T17:30:17.526Z,102972.78
2023-02-16T17:32:53.766Z,102979.22
2023-02-16T17:35:26.029Z,102980.34
2023-02-16T17:37:58.777Z,102980.03
2023-02-16T17:40:27.724Z,102973.84
2023-02-16T17:43:02.262Z,102976.22
2023-02-16T17:45:33.136Z,102984.56
2023-02-16T17:50:57.298Z,102990.47
2023-02-16T17:53:46.568Z,102991.75
2023-02-16T17:56:26.575Z,102985.44
2023-02-16T17:59:05.754Z,102985.38
2023-02-16T18:01:39.318Z,102986.91
2023-02-16T18:04:16.263Z,102990.78
2023-02-16T18:07:03.756Z,102994.75
2023-02-16T18:09:41.306Z,102995.38
2023-02-16T18:15:29.724Z,103000.69
2023-02-16T18:18:05.417Z,103000.47
2023-02-16T18:20:49.379Z,103001.44
2023-02-16T18:23:23.964Z,103002.88
2023-02-16T18:26:10.788Z,103016.00
2023-02-16T18:31:31.656Z,103011.53
2023-02-16T18:34:06.278Z,103011.13
2023-02-16T18:36:44.315Z,103012.34
2023-02-16T18:39:28.059Z,103018.38
2023-02-16T18:41:55.805Z,103012.50
2023-02-16T18:44:28.500Z,103019.94
2023-02-16T18:47:02.136Z,103017.69
2023-02-16T18:52:19.171Z,103012.66
2023-02-16T18:54:50.022Z,103014.22
2023-02-16T18:57:29.630Z,103012.88
2023-02-16T19:00:00.353Z,103022.00
2023-02-16T19:02:32.920Z,103016.59
2023-02-16T19:05:09.822Z,103017.22
2023-02-16T19:07:59.151Z,103023.75
2023-02-16T19:10:33.605Z,103029.28
2023-02-16T19:13:10.050Z,103024.63
2023-02-16T19:15:44.058Z,103028.78
2023-02-16T19:18:36.135Z,103033.97
2023-02-16T19:21:10.432Z,103045.78
2023-02-16T19:23:48.204Z,103043.56
2023-02-16T19:26:29.636Z,103045.19
2023-02-16T19:29:02.860Z,103052.13
2023-02-16T19:31:37.669Z,103044.72
2023-02-16T19:34:18.203Z,103049.75
2023-02-16T19:37:00.777Z,103045.44
2023-02-16T19:39:58.064Z,103051.25
2023-02-16T19:42:40.509Z,103048.06
2023-02-16T19:45:20.615Z,103049.03
2023-02-16T19:48:04.578Z,103051.56
2023-02-16T19:50:41.117Z,103053.50
2023-02-16T19:56:27.494Z,103047.56
2023-02-16T19:58:58.458Z,103049.28
2023-02-16T20:01:51.049Z,103055.78
2023-02-16T20:04:38.992Z,103061.44
2023-02-16T20:10:09.721Z,103061.34
2023-02-16T20:12:57.256Z,103072.81
2023-02-16T20:15:28.709Z,103071.22
2023-02-16T20:18:12.804Z,103071.22
2023-02-16T20:21:33.739Z,103068.75
2023-02-16T20:24:15.323Z,103070.47
2023-02-16T20:27:06.554Z,103071.34
2023-02-16T20:29:42.327Z,103073.16
2023-02-16T20:32:32.911Z,103080.91
2023-02-16T20:35:17.144Z,103078.13
2023-02-16T20:37:54.459Z,103081.63
2023-02-16T20:40:39.918Z,103084.78
2023-02-16T20:43:23.074Z,103089.28
2023-02-16T20:46:09.911Z,103089.13
2023-02-16T20:48:43.306Z,103082.94
2023-02-16T20:51:24.626Z,103091.56
2023-02-16T20:54:05.818Z,103089.44
2023-02-16T20:56:40.099Z,103094.50
2023-02-16T20:59:44.964Z,103093.34
2023-02-16T21:02:22.892Z,103107.09
2023-02-16T21:04:59.043Z,103109.41
2023-02-16T21:07:37.801Z,103108.22
2023-02-16T21:10:28.944Z,103112.38
2023-02-16T21:13:22.010Z,103106.38
2023-02-16T21:16:00.578Z,103109.50
2023-02-16T21:18:40.630Z,103108.63
2023-02-16T21:21:54.399Z,103106.38
2023-02-16T21:24:31.416Z,103104.50
2023-02-16T21:27:03.332Z,103109.69
2023-02-16T21:29:42.087Z,103108.63
2023-02-16T21:32:34.758Z,103104.16
2023-02-16T21:35:26.263Z,103104.97
2023-02-16T21:38:04.768Z,103103.88
2023-02-16T21:44:15.065Z,103103.19
2023-02-16T21:46:47.954Z,103104.91
2023-02-16T21:49:55.231Z,103102.31
2023-02-16T21:52:59.004Z,103102.06
2023-02-16T22:01:56.327Z,103097.13
2023-02-16T22:04:34.007Z,103091.84
2023-02-16T22:07:27.375Z,103085.38
2023-02-16T22:10:32.215Z,103092.28
2023-02-16T22:13:08.913Z,103095.78
2023-02-16T22:15:43.221Z,103103.53
2023-02-16T22:18:18.660Z,103110.28
2023-02-16T22:20:57.704Z,103112.78
2023-02-16T22:23:45.662Z,103114.84
2023-02-16T22:26:54.307Z,103116.56
2023-02-16T22:29:27.369Z,103119.25
2023-02-16T22:31:59.907Z,103119.97
2023-02-16T22:34:44.512Z,103122.28
2023-02-16T22:37:14.671Z,103124.63
2023-02-16T22:39:45.125Z,103124.63
2023-02-16T22:42:12.425Z,103122.84
2023-02-16T22:44:47.776Z,103119.13
2023-02-16T22:47:20.930Z,103114.56
2023-02-16T22:49:50.396Z,103115.47
2023-02-16T22:55:10.860Z,103116.72
2023-02-16T22:57:46.827Z,103118.63
2023-02-16T23:00:17.759Z,103112.78
2023-02-16T23:02:51.046Z,103121.56
2023-02-16T23:05:23.845Z,103117.59
2023-02-16T23:08:27.354Z,103118.88
2023-02-16T23:11:09.556Z,103112.44
2023-02-16T23:14:17.487Z,103115.63
2023-02-16T23:17:00.573Z,103117.34
2023-02-16T23:19:51.424Z,103121.75
2023-02-16T23:22:58.822Z,103124.16
2023-02-16T23:25:35.172Z,103115.00
2023-02-16T23:28:08.837Z,103109.91
2023-02-16T23:30:56.319Z,103115.00
2023-02-16T23:33:32.644Z,103113.19
2023-02-16T23:36:13.205Z,103115.00
2023-02-16T23:38:47.541Z,103108.13
2023-02-16T23:41:29.581Z,103115.69
2023-02-16T23:44:12.416Z,103110.50
2023-02-16T23:46:58.215Z,103106.25
2023-02-16T23:49:31.709Z,103103.75
2023-02-16T23:52:15.852Z,103107.06
2023-02-16T23:54:55.561Z,103105.44
2023-02-16T23:57:30.995Z,103102.66
